Baxter, Colorado
Current Conditions -  °F | °C
As of 8:53 PM on Tuesday 25 Nov 2014 (Local Time) from KPUB Reporting Station
Clear Clear  
Wind Chill: 50°   Ceiling: Unl
Heat Index: 50°   Visibility: 10mi
Dew Point: 22°   Wind: 29mph
Humidity: 33%   Direction: 290°WNW
Pressure: 29.94"   Gusts: 35mph
Location:  38.2482°N, 104.47°W
Report Text: KPUB 260353Z 29025G30KT 10SM CLR 10/M06 A2994 RMK AO2 PK WND 29030/0353 SLP142 T01001056
Loading
Personal Weather Stations






























Interactive Weather Map New forecast layout! Learn more

10-Day Weather Forecast

Advertisements
Track Severe Weather on mobile